createdAt,value
2023-04-15T00:00:59.893Z,87.63
2023-04-15T00:03:29.910Z,88.50
2023-04-15T00:05:58.689Z,89.01
2023-04-15T00:08:27.344Z,88.91
2023-04-15T00:10:55.846Z,88.92
2023-04-15T00:13:24.705Z,89.74
2023-04-15T00:15:52.331Z,89.63
2023-04-15T00:18:19.605Z,89.74
2023-04-15T00:20:47.149Z,89.83
2023-04-15T00:23:17.252Z,89.99
2023-04-15T00:25:44.927Z,90.08
2023-04-15T00:28:12.461Z,89.97
2023-04-15T00:30:39.982Z,90.70
2023-04-15T00:33:09.849Z,91.08
2023-04-15T00:35:43.557Z,90.29
2023-04-15T00:38:12.486Z,91.59
2023-04-15T00:40:41.460Z,91.48
2023-04-15T00:43:08.989Z,91.82
2023-04-15T00:45:36.634Z,91.20
2023-04-15T00:48:05.590Z,91.34
2023-04-15T00:50:36.283Z,91.49
2023-04-15T00:53:03.798Z,92.72
2023-04-15T00:55:33.449Z,93.26
2023-04-15T00:58:00.856Z,93.02
2023-04-15T01:00:30.406Z,93.18
2023-04-15T01:03:01.050Z,92.62
2023-04-15T01:05:30.251Z,93.24
2023-04-15T01:07:57.856Z,94.40
2023-04-15T01:10:26.414Z,93.57
2023-04-15T01:12:54.887Z,93.74
2023-04-15T01:15:22.732Z,93.86
2023-04-15T01:17:51.147Z,95.19
2023-04-15T01:20:19.497Z,95.56
2023-04-15T01:22:49.310Z,95.11
2023-04-15T01:25:36.107Z,95.69
2023-04-15T01:28:03.954Z,96.10
2023-04-15T01:30:35.972Z,95.96
2023-04-15T01:33:03.450Z,97.02
2023-04-15T01:35:32.398Z,97.75
2023-04-15T01:38:08.490Z,97.36
2023-04-15T01:40:36.290Z,97.53
2023-04-15T01:43:03.932Z,97.69
2023-04-15T01:45:31.272Z,98.93
2023-04-15T01:47:58.904Z,99.08
2023-04-15T01:50:27.197Z,98.89
2023-04-15T01:52:56.002Z,99.52
2023-04-15T01:55:24.733Z,100.00
2023-04-15T01:57:53.851Z,100.00
2023-04-15T02:00:23.097Z,100.00
2023-04-15T02:02:54.034Z,100.00
2023-04-15T02:05:21.497Z,100.00
2023-04-15T02:07:49.423Z,100.00
2023-04-15T02:10:17.233Z,100.00
2023-04-15T02:12:44.807Z,100.00
2023-04-15T02:15:12.183Z,100.00
2023-04-15T02:17:39.669Z,100.00
2023-04-15T02:20:11.451Z,100.00
2023-04-15T02:22:38.837Z,100.00
2023-04-15T02:25:07.503Z,100.00
2023-04-15T02:27:36.628Z,100.00
2023-04-15T02:30:07.422Z,100.00
2023-04-15T02:32:35.616Z,100.00
2023-04-15T02:35:09.408Z,100.00
2023-04-15T02:37:44.978Z,100.00
2023-04-15T02:40:16.503Z,100.00
2023-04-15T02:42:44.656Z,100.00
2023-04-15T02:45:16.402Z,100.00
2023-04-15T02:47:45.980Z,100.00
2023-04-15T02:50:15.174Z,100.00
2023-04-15T02:52:44.886Z,100.00
2023-04-15T02:55:13.317Z,100.00
2023-04-15T02:57:41.249Z,100.00
2023-04-15T03:00:11.942Z,100.00
2023-04-15T03:02:43.100Z,100.00
2023-04-15T03:05:15.106Z,100.00
2023-04-15T03:07:48.594Z,100.00
2023-04-15T03:10:16.104Z,100.00
2023-04-15T03:12:44.922Z,100.00
2023-04-15T03:15:17.312Z,100.00
2023-04-15T03:17:49.659Z,100.00
2023-04-15T03:20:17.391Z,100.00
2023-04-15T03:22:44.769Z,100.00
2023-04-15T03:25:13.322Z,100.00
2023-04-15T03:27:42.579Z,100.00
2023-04-15T03:30:10.902Z,100.00
2023-04-15T03:32:40.854Z,100.00
2023-04-15T03:35:09.773Z,100.00
2023-04-15T03:37:39.519Z,100.00
2023-04-15T03:40:09.788Z,100.00
2023-04-15T03:42:37.107Z,100.00
2023-04-15T03:45:05.282Z,100.00
2023-04-15T03:47:32.595Z,100.00
2023-04-15T03:50:00.516Z,100.00
2023-04-15T03:52:27.741Z,100.00
2023-04-15T03:54:56.365Z,100.00
2023-04-15T03:57:23.722Z,100.00
2023-04-15T03:59:51.299Z,100.00
2023-04-15T04:02:18.828Z,100.00
2023-04-15T04:04:46.493Z,100.00
2023-04-15T04:07:18.216Z,100.00
2023-04-15T04:09:47.348Z,100.00
2023-04-15T04:12:16.553Z,100.00
2023-04-15T04:14:43.943Z,100.00
2023-04-15T04:17:11.791Z,100.00
2023-04-15T04:19:39.506Z,100.00
2023-04-15T04:22:06.795Z,100.00
2023-04-15T04:24:35.025Z,100.00
2023-04-15T04:27:02.297Z,100.00
2023-04-15T04:29:31.551Z,100.00
2023-04-15T04:31:58.919Z,100.00
2023-04-15T04:34:26.241Z,100.00
2023-04-15T04:36:53.552Z,100.00
2023-04-15T04:39:20.815Z,100.00
2023-04-15T04:41:48.141Z,100.00
2023-04-15T04:44:15.974Z,100.00
2023-04-15T04:46:43.309Z,100.00
2023-04-15T04:49:12.304Z,100.00
2023-04-15T04:51:40.889Z,100.00
2023-04-15T04:54:08.673Z,100.00
2023-04-15T04:56:35.930Z,100.00
2023-04-15T04:59:04.152Z,100.00
2023-04-15T05:01:31.448Z,100.00
2023-04-15T05:03:58.906Z,100.00
2023-04-15T05:06:30.564Z,100.00
2023-04-15T05:09:00.261Z,100.00
2023-04-15T05:11:28.662Z,100.00
2023-04-15T05:13:56.136Z,100.00
2023-04-15T05:16:23.573Z,100.00
2023-04-15T05:18:52.660Z,100.00
2023-04-15T05:21:21.566Z,100.00
2023-04-15T05:23:49.106Z,100.00
2023-04-15T05:26:18.507Z,100.00
2023-04-15T05:28:46.203Z,100.00
2023-04-15T05:31:16.213Z,100.00
2023-04-15T05:33:43.866Z,100.00
2023-04-15T05:36:19.751Z,100.00
2023-04-15T05:38:47.012Z,100.00
2023-04-15T05:41:16.583Z,100.00
2023-04-15T05:43:45.752Z,100.00
2023-04-15T05:46:13.102Z,100.00
2023-04-15T05:48:40.485Z,100.00
2023-04-15T05:51:08.086Z,100.00
2023-04-15T05:53:35.923Z,100.00
2023-04-15T05:56:03.347Z,100.00
2023-04-15T05:58:30.735Z,100.00
2023-04-15T06:00:58.073Z,100.00
2023-04-15T06:03:25.693Z,100.00
2023-04-15T06:05:53.178Z,100.00
2023-04-15T06:08:20.643Z,100.00
2023-04-15T06:10:48.524Z,100.00
2023-04-15T06:13:17.047Z,100.00
2023-04-15T06:15:45.445Z,100.00
2023-04-15T06:18:13.244Z,100.00
2023-04-15T06:20:41.890Z,100.00
2023-04-15T06:23:10.354Z,100.00
2023-04-15T06:25:38.702Z,100.00
2023-04-15T06:28:06.380Z,100.00
2023-04-15T06:30:36.216Z,100.00
2023-04-15T06:33:05.601Z,100.00
2023-04-15T06:35:33.135Z,100.00
2023-04-15T06:38:00.417Z,100.00
2023-04-15T06:40:28.349Z,100.00
2023-04-15T06:42:56.161Z,100.00
2023-04-15T06:45:24.946Z,100.00
2023-04-15T06:47:53.456Z,100.00
2023-04-15T06:50:21.073Z,100.00
2023-04-15T06:52:50.365Z,100.00
2023-04-15T06:55:17.898Z,100.00
2023-04-15T06:57:46.071Z,100.00
2023-04-15T07:00:18.187Z,100.00
2023-04-15T07:02:56.001Z,100.00
2023-04-15T07:05:25.727Z,100.00
2023-04-15T07:07:58.252Z,100.00
2023-04-15T07:10:27.197Z,100.00
2023-04-15T07:13:01.161Z,100.00
2023-04-15T07:15:29.749Z,100.00
2023-04-15T07:17:57.752Z,100.00
2023-04-15T07:20:25.698Z,100.00
2023-04-15T07:22:54.232Z,100.00
2023-04-15T07:25:23.794Z,100.00
2023-04-15T07:27:51.440Z,100.00
2023-04-15T07:30:18.911Z,100.00
2023-04-15T07:32:47.637Z,100.00
2023-04-15T07:35:17.212Z,100.00
2023-04-15T07:37:46.075Z,100.00
2023-04-15T07:40:16.226Z,100.00
2023-04-15T07:42:50.308Z,100.00
2023-04-15T07:45:22.453Z,100.00
2023-04-15T07:47:51.604Z,100.00
2023-04-15T07:50:22.880Z,100.00
2023-04-15T07:52:53.309Z,98.92
2023-04-15T07:55:23.636Z,97.99
2023-04-15T07:57:51.363Z,99.04
2023-04-15T08:00:22.275Z,95.32
2023-04-15T08:02:53.308Z,90.46
2023-04-15T08:05:23.251Z,89.45
2023-04-15T08:07:53.201Z,89.20
2023-04-15T08:10:20.664Z,90.04
2023-04-15T08:12:49.648Z,88.17
2023-04-15T08:15:17.823Z,86.79
2023-04-15T08:17:47.291Z,85.19
2023-04-15T08:20:16.758Z,83.71
2023-04-15T08:22:52.293Z,82.46
2023-04-15T08:25:23.409Z,82.11
2023-04-15T08:27:55.827Z,84.17
2023-04-15T08:30:24.674Z,84.80
2023-04-15T08:32:55.181Z,82.34
2023-04-15T08:35:24.130Z,82.56
2023-04-15T08:37:51.495Z,84.07
2023-04-15T08:40:21.027Z,85.84
2023-04-15T08:42:54.657Z,86.29
2023-04-15T08:45:23.542Z,86.31
2023-04-15T08:47:56.743Z,86.79
2023-04-15T08:50:28.627Z,88.35
2023-04-15T08:52:59.307Z,87.82
2023-04-15T08:55:35.937Z,88.26
2023-04-15T08:58:05.705Z,89.02
2023-04-15T09:00:34.130Z,89.43
2023-04-15T09:03:02.438Z,90.91
2023-04-15T09:05:33.950Z,89.86
2023-04-15T09:08:04.608Z,87.26
2023-04-15T09:10:34.457Z,84.67
2023-04-15T09:13:03.360Z,84.64
2023-04-15T09:15:33.907Z,83.99
2023-04-15T09:18:02.624Z,80.69
2023-04-15T09:20:32.832Z,80.46
2023-04-15T09:23:15.501Z,79.42
2023-04-15T09:25:45.453Z,80.26
2023-04-15T09:28:14.065Z,80.43
2023-04-15T09:30:46.831Z,75.99
2023-04-15T09:33:17.470Z,73.10
2023-04-15T09:36:10.445Z,69.85
2023-04-15T09:39:02.008Z,71.42
2023-04-15T09:41:29.350Z,70.19
2023-04-15T09:43:57.307Z,69.11
2023-04-15T09:46:46.221Z,69.81
2023-04-15T09:49:16.325Z,71.61
2023-04-15T09:51:54.124Z,71.06
2023-04-15T09:54:47.388Z,69.87
2023-04-15T09:57:17.921Z,68.97
2023-04-15T09:59:48.212Z,68.71
2023-04-15T10:02:19.618Z,67.55
2023-04-15T10:04:50.381Z,68.84
2023-04-15T10:07:23.206Z,68.95
2023-04-15T10:09:53.061Z,67.47
2023-04-15T10:12:23.695Z,68.63
2023-04-15T10:15:03.305Z,63.75
2023-04-15T10:17:37.286Z,64.06
2023-04-15T10:20:08.179Z,62.46
2023-04-15T10:22:39.241Z,62.47
2023-04-15T10:25:09.755Z,61.71
2023-04-15T10:27:42.295Z,61.46
2023-04-15T10:30:12.720Z,61.07
2023-04-15T10:32:44.418Z,61.62
2023-04-15T10:35:24.370Z,63.29
2023-04-15T10:37:54.462Z,62.72
2023-04-15T10:40:33.647Z,62.56
2023-04-15T10:43:03.068Z,59.04
2023-04-15T10:45:38.040Z,59.42
2023-04-15T10:48:09.412Z,59.84
2023-04-15T10:50:57.779Z,58.27
2023-04-15T10:53:31.959Z,58.78
2023-04-15T10:56:00.584Z,59.46
2023-04-15T10:58:44.079Z,56.53
2023-04-15T11:01:11.706Z,59.26
2023-04-15T11:03:45.628Z,58.24
2023-04-15T11:06:14.508Z,56.75
2023-04-15T11:08:56.744Z,55.01
2023-04-15T11:11:24.186Z,56.46
2023-04-15T11:13:53.608Z,54.95
2023-04-15T11:16:21.512Z,52.27
2023-04-15T11:18:57.531Z,53.58
2023-04-15T11:21:29.643Z,54.32
2023-04-15T11:23:57.027Z,56.31
2023-04-15T11:26:27.293Z,54.91
2023-04-15T11:28:59.813Z,54.32
2023-04-15T11:31:28.657Z,55.73
2023-04-15T11:34:02.447Z,58.54
2023-04-15T11:36:35.618Z,60.60
2023-04-15T11:39:02.986Z,62.12
2023-04-15T11:41:30.598Z,63.61
2023-04-15T11:43:57.933Z,64.13
2023-04-15T11:46:31.906Z,63.33
2023-04-15T11:49:00.228Z,62.02
2023-04-15T11:51:32.863Z,60.77
2023-04-15T11:54:01.688Z,62.31
2023-04-15T11:56:30.518Z,63.55
2023-04-15T11:59:02.291Z,64.93
2023-04-15T12:01:44.945Z,62.83
2023-04-15T12:04:22.504Z,61.25
2023-04-15T12:06:53.953Z,60.93
2023-04-15T12:09:21.992Z,59.28
2023-04-15T12:11:58.339Z,57.46
2023-04-15T12:14:28.880Z,58.79
2023-04-15T12:17:04.960Z,60.25
2023-04-15T12:19:37.948Z,59.65
2023-04-15T12:22:16.388Z,59.57
2023-04-15T12:24:48.008Z,60.86
2023-04-15T12:27:17.842Z,61.40
2023-04-15T12:29:45.767Z,61.66
2023-04-15T12:32:16.583Z,63.25
2023-04-15T12:34:55.627Z,63.11
2023-04-15T12:37:23.222Z,59.91
2023-04-15T12:39:51.943Z,58.00
2023-04-15T12:42:20.381Z,58.42
2023-04-15T12:44:48.066Z,60.78
2023-04-15T12:47:17.213Z,61.66
2023-04-15T12:49:47.206Z,61.56
2023-04-15T12:52:15.164Z,60.91
2023-04-15T12:54:44.529Z,60.83
2023-04-15T12:57:12.485Z,61.15
2023-04-15T12:59:43.237Z,60.51
2023-04-15T13:02:10.658Z,59.54
2023-04-15T13:04:39.293Z,61.25
2023-04-15T13:07:07.556Z,60.22
2023-04-15T13:09:35.299Z,60.89
2023-04-15T13:12:05.399Z,58.00
2023-04-15T13:14:32.740Z,58.51
2023-04-15T13:17:10.208Z,57.76
2023-04-15T13:19:38.781Z,57.74
2023-04-15T13:22:08.445Z,60.02
2023-04-15T13:24:39.692Z,59.24
2023-04-15T13:27:08.395Z,56.94
2023-04-15T13:29:35.692Z,56.09
2023-04-15T13:32:03.246Z,56.40
2023-04-15T13:34:30.716Z,56.72
2023-04-15T13:36:59.685Z,58.68
2023-04-15T13:39:28.096Z,59.37
2023-04-15T13:41:57.864Z,59.04
2023-04-15T13:44:25.367Z,60.28
2023-04-15T13:46:54.675Z,60.59
2023-04-15T13:49:23.407Z,61.38
2023-04-15T13:51:52.155Z,58.71
2023-04-15T13:54:20.770Z,57.91
2023-04-15T13:56:48.510Z,58.12
2023-04-15T13:59:16.056Z,56.53
2023-04-15T14:01:44.369Z,56.09
2023-04-15T14:04:11.933Z,54.88
2023-04-15T14:06:40.706Z,55.04
2023-04-15T14:09:08.103Z,57.59
2023-04-15T14:11:36.977Z,60.09
2023-04-15T14:14:05.707Z,59.17
2023-04-15T14:16:34.711Z,61.63
2023-04-15T14:19:03.880Z,63.66
2023-04-15T14:21:32.653Z,65.15
2023-04-15T14:24:00.522Z,64.83
2023-04-15T14:26:28.310Z,65.79
2023-04-15T14:28:56.815Z,65.98
2023-04-15T14:31:25.485Z,67.98
2023-04-15T14:33:54.701Z,69.77
2023-04-15T14:36:21.982Z,70.75
2023-04-15T14:38:50.266Z,69.19
2023-04-15T14:41:17.528Z,68.83
2023-04-15T14:43:44.881Z,70.01
2023-04-15T14:46:14.541Z,71.61
2023-04-15T14:48:42.897Z,73.09
2023-04-15T14:51:10.338Z,72.20
2023-04-15T14:53:40.456Z,73.80
2023-04-15T14:56:08.333Z,75.06
2023-04-15T14:58:35.974Z,71.66
2023-04-15T15:01:04.795Z,71.27
2023-04-15T15:03:32.952Z,71.99
2023-04-15T15:06:01.778Z,73.28
2023-04-15T15:08:30.066Z,75.07
2023-04-15T15:10:57.515Z,75.53
2023-04-15T15:13:31.502Z,76.27
2023-04-15T15:16:00.897Z,75.06
2023-04-15T15:18:28.409Z,71.74
2023-04-15T15:20:57.138Z,70.37
2023-04-15T15:23:26.916Z,72.34
2023-04-15T15:25:54.903Z,70.73
2023-04-15T15:28:22.360Z,71.71
2023-04-15T15:30:51.267Z,73.51
2023-04-15T15:33:20.835Z,75.67
2023-04-15T15:35:48.215Z,75.53
2023-04-15T15:38:16.822Z,75.00
2023-04-15T15:40:44.859Z,75.02
2023-04-15T15:43:12.124Z,76.21
2023-04-15T15:45:43.148Z,78.27
2023-04-15T15:48:10.512Z,81.52
2023-04-15T15:50:38.897Z,84.65
2023-04-15T15:53:06.233Z,87.53
2023-04-15T15:55:33.846Z,89.12
2023-04-15T15:58:01.695Z,91.32
2023-04-15T16:00:29.242Z,92.86
2023-04-15T16:05:27.930Z,95.28
2023-04-15T16:07:58.029Z,95.92
2023-04-15T16:10:25.361Z,94.29
2023-04-15T16:12:52.742Z,93.75
2023-04-15T16:15:21.350Z,92.56
2023-04-15T16:17:48.710Z,92.16
2023-04-15T16:20:16.703Z,92.19
2023-04-15T16:22:44.363Z,93.47
2023-04-15T16:25:13.536Z,94.85
2023-04-15T16:27:58.812Z,95.90
2023-04-15T16:30:29.019Z,96.21
2023-04-15T16:32:57.875Z,96.75
2023-04-15T16:35:26.566Z,96.51
2023-04-15T16:37:53.857Z,96.38
2023-04-15T16:40:21.868Z,97.09
2023-04-15T16:42:51.725Z,96.71
2023-04-15T16:45:19.272Z,97.68
2023-04-15T16:47:46.705Z,98.29
2023-04-15T16:50:14.684Z,98.93
2023-04-15T16:52:42.273Z,98.06
2023-04-15T16:55:10.829Z,97.02
2023-04-15T16:58:00.557Z,96.95
2023-04-15T17:00:27.350Z,96.33
2023-04-15T17:02:56.174Z,97.76
2023-04-15T17:05:23.650Z,99.01
2023-04-15T17:07:51.090Z,99.55
2023-04-15T17:10:18.469Z,100.00
2023-04-15T17:12:45.794Z,100.00
2023-04-15T17:15:14.168Z,100.00
2023-04-15T17:17:41.483Z,100.00
2023-04-15T17:20:09.498Z,100.00
2023-04-15T17:22:37.018Z,100.00
2023-04-15T17:25:05.480Z,100.00
2023-04-15T17:27:32.939Z,100.00
2023-04-15T17:30:01.920Z,100.00
2023-04-15T17:32:34.342Z,100.00
2023-04-15T17:35:06.458Z,100.00
2023-04-15T17:37:36.178Z,100.00
2023-04-15T17:40:04.823Z,100.00
2023-04-15T17:42:34.254Z,100.00
2023-04-15T17:45:01.587Z,100.00
2023-04-15T17:47:29.015Z,100.00
2023-04-15T17:49:56.377Z,100.00
2023-04-15T17:52:23.778Z,100.00
2023-04-15T17:54:52.460Z,100.00
2023-04-15T17:57:19.811Z,100.00
2023-04-15T17:59:48.033Z,100.00
2023-04-15T18:02:16.025Z,100.00
2023-04-15T18:04:45.315Z,100.00
2023-04-15T18:07:12.689Z,100.00
2023-04-15T18:09:40.080Z,100.00
2023-04-15T18:12:08.996Z,100.00
2023-04-15T18:14:37.080Z,100.00
2023-04-15T18:17:04.601Z,100.00
2023-04-15T18:19:36.233Z,100.00
2023-04-15T18:22:04.067Z,100.00
2023-04-15T18:24:31.764Z,100.00
2023-04-15T18:26:59.487Z,100.00
2023-04-15T18:29:26.888Z,100.00
2023-04-15T18:31:56.793Z,100.00
2023-04-15T18:34:26.475Z,100.00
2023-04-15T18:36:59.912Z,100.00
2023-04-15T18:39:28.121Z,100.00
2023-04-15T18:41:57.334Z,100.00
2023-04-15T18:44:24.655Z,100.00
2023-04-15T18:46:52.018Z,100.00
2023-04-15T18:49:19.337Z,100.00
2023-04-15T18:51:46.637Z,100.00
2023-04-15T18:54:14.965Z,100.00
2023-04-15T18:56:43.677Z,100.00
2023-04-15T18:59:28.801Z,100.00
2023-04-15T19:02:00.221Z,100.00
2023-04-15T19:04:30.632Z,100.00
2023-04-15T19:06:59.197Z,100.00
2023-04-15T19:09:28.127Z,100.00
2023-04-15T19:11:56.946Z,100.00
2023-04-15T19:14:24.657Z,100.00
2023-04-15T19:16:53.159Z,100.00
2023-04-15T19:19:23.155Z,100.00
2023-04-15T19:21:50.998Z,100.00
2023-04-15T19:24:20.176Z,100.00
2023-04-15T19:26:51.181Z,100.00
2023-04-15T19:29:19.703Z,100.00
2023-04-15T19:31:47.052Z,100.00
2023-04-15T19:34:14.627Z,100.00
2023-04-15T19:36:43.200Z,100.00
2023-04-15T19:39:10.675Z,100.00
2023-04-15T19:41:39.321Z,100.00
2023-04-15T19:44:06.976Z,100.00
2023-04-15T19:46:34.341Z,100.00
2023-04-15T19:49:01.798Z,100.00
2023-04-15T19:51:31.792Z,100.00
2023-04-15T19:53:59.689Z,100.00
2023-04-15T19:56:27.062Z,100.00
2023-04-15T19:58:55.309Z,100.00
2023-04-15T20:01:23.372Z,100.00
2023-04-15T20:03:54.733Z,100.00
2023-04-15T20:06:23.900Z,100.00
2023-04-15T20:08:51.817Z,100.00
2023-04-15T20:11:19.280Z,100.00
2023-04-15T20:13:46.629Z,100.00
2023-04-15T20:16:16.068Z,100.00
2023-04-15T20:18:43.438Z,100.00
2023-04-15T20:21:10.810Z,100.00
2023-04-15T20:23:43.231Z,100.00
2023-04-15T20:26:10.687Z,100.00
2023-04-15T20:28:38.889Z,100.00
2023-04-15T20:31:06.225Z,100.00
2023-04-15T20:33:33.518Z,100.00
2023-04-15T20:36:00.811Z,100.00
2023-04-15T20:38:29.289Z,100.00
2023-04-15T20:40:57.852Z,100.00
2023-04-15T20:43:26.163Z,100.00
2023-04-15T20:45:56.600Z,100.00
2023-04-15T20:48:25.451Z,100.00
2023-04-15T20:50:52.720Z,100.00
2023-04-15T20:53:20.024Z,100.00
2023-04-15T20:55:47.355Z,100.00
2023-04-15T20:58:15.786Z,100.00
2023-04-15T21:00:45.413Z,100.00
2023-04-15T21:03:13.022Z,100.00
2023-04-15T21:05:40.543Z,100.00
2023-04-15T21:08:07.818Z,100.00
2023-04-15T21:10:42.547Z,100.00
2023-04-15T21:13:10.079Z,100.00
2023-04-15T21:15:39.391Z,100.00
2023-04-15T21:18:06.760Z,100.00
2023-04-15T21:20:34.114Z,100.00
2023-04-15T21:23:03.761Z,100.00
2023-04-15T21:25:31.033Z,100.00
2023-04-15T21:27:58.303Z,100.00
2023-04-15T21:30:25.620Z,100.00
2023-04-15T21:32:53.066Z,100.00
2023-04-15T21:35:20.362Z,100.00
2023-04-15T21:37:47.699Z,100.00
2023-04-15T21:40:16.009Z,100.00
2023-04-15T21:42:43.266Z,100.00
2023-04-15T21:45:11.402Z,100.00
2023-04-15T21:48:04.957Z,100.00
2023-04-15T21:50:26.218Z,100.00
2023-04-15T21:52:53.693Z,100.00
2023-04-15T21:55:21.270Z,100.00
2023-04-15T21:57:48.551Z,100.00
2023-04-15T22:00:16.437Z,100.00
2023-04-15T22:02:43.850Z,100.00
2023-04-15T22:05:13.736Z,100.00
2023-04-15T22:07:44.737Z,100.00
2023-04-15T22:10:12.040Z,100.00
2023-04-15T22:12:43.090Z,100.00
2023-04-15T22:15:10.605Z,100.00
2023-04-15T22:17:37.950Z,100.00
2023-04-15T22:20:08.546Z,100.00
2023-04-15T22:22:43.853Z,100.00
2023-04-15T22:25:12.698Z,100.00
2023-04-15T22:27:39.973Z,100.00
2023-04-15T22:30:08.680Z,100.00
2023-04-15T22:32:36.341Z,100.00
2023-04-15T22:35:06.346Z,100.00
2023-04-15T22:37:33.873Z,100.00
2023-04-15T22:40:02.241Z,100.00
2023-04-15T22:42:29.586Z,100.00
2023-04-15T22:44:56.960Z,100.00
2023-04-15T22:47:24.292Z,100.00
2023-04-15T22:49:51.611Z,100.00
2023-04-15T22:55:23.692Z,100.00
2023-04-15T22:57:52.773Z,100.00
2023-04-15T23:00:20.125Z,100.00
2023-04-15T23:02:47.519Z,100.00
2023-04-15T23:05:14.902Z,100.00
2023-04-15T23:07:42.241Z,100.00
2023-04-15T23:10:10.024Z,100.00
2023-04-15T23:12:37.348Z,100.00
2023-04-15T23:15:05.372Z,100.00
2023-04-15T23:17:32.590Z,100.00
2023-04-15T23:19:59.841Z,100.00
2023-04-15T23:22:27.922Z,100.00
2023-04-15T23:24:55.204Z,100.00
2023-04-15T23:27:22.836Z,100.00
2023-04-15T23:29:50.065Z,100.00
2023-04-15T23:32:17.614Z,100.00
2023-04-15T23:34:44.864Z,100.00
2023-04-15T23:37:12.210Z,100.00
2023-04-15T23:39:39.444Z,100.00
2023-04-15T23:42:07.149Z,100.00
2023-04-15T23:44:35.815Z,100.00
2023-04-15T23:47:03.145Z,100.00
2023-04-15T23:49:30.807Z,100.00
2023-04-15T23:51:58.099Z,100.00
2023-04-15T23:54:25.518Z,100.00
2023-04-15T23:56:52.877Z,100.00
2023-04-15T23:59:20.178Z,100.00
